sensor_id;sensor_type;location;lat;lon;timestamp;pressure;altitude;pressure_sealevel;temperature;humidity
49216;BME280;45943;53.148;8.204;2022-12-18T00:01:43;103008.22;;;-0.90;100.00
49216;BME280;45943;53.148;8.204;2022-12-18T00:04:18;102992.44;;;-0.73;100.00
49216;BME280;45943;53.148;8.204;2022-12-18T00:06:47;102989.78;;;-0.90;100.00
49216;BME280;45943;53.148;8.204;2022-12-18T00:09:13;102990.69;;;-0.97;100.00
49216;BME280;45943;53.148;8.204;2022-12-18T00:11:39;102988.06;;;-0.86;100.00
49216;BME280;45943;53.148;8.204;2022-12-18T00:14:05;102976.63;;;-0.82;100.00
49216;BME280;45943;53.148;8.204;2022-12-18T00:16:31;102984.53;;;-0.96;100.00
49216;BME280;45943;53.148;8.204;2022-12-18T00:18:59;102986.28;;;-1.05;100.00
49216;BME280;45943;53.148;8.204;2022-12-18T00:21:26;102988.88;;;-1.11;100.00
49216;BME280;45943;53.148;8.204;2022-12-18T00:23:53;102984.50;;;-1.16;100.00
49216;BME280;45943;53.148;8.204;2022-12-18T00:26:24;102994.16;;;-1.08;100.00
49216;BME280;45943;53.148;8.204;2022-12-18T00:28:54;102984.50;;;-1.03;100.00
49216;BME280;45943;53.148;8.204;2022-12-18T00:31:23;102984.56;;;-0.87;100.00
49216;BME280;45943;53.148;8.204;2022-12-18T00:33:50;102974.00;;;-0.83;100.00
49216;BME280;45943;53.148;8.204;2022-12-18T00:36:18;102974.91;;;-0.78;100.00
49216;BME280;45943;53.148;8.204;2022-12-18T00:38:46;102971.38;;;-0.87;100.00
49216;BME280;45943;53.148;8.204;2022-12-18T00:41:13;102974.00;;;-0.93;100.00
49216;BME280;45943;53.148;8.204;2022-12-18T00:44:01;102985.34;;;-1.18;100.00
49216;BME280;45943;53.148;8.204;2022-12-18T00:46:27;102981.84;;;-1.22;100.00
49216;BME280;45943;53.148;8.204;2022-12-18T00:48:53;102980.97;;;-1.16;100.00
49216;BME280;45943;53.148;8.204;2022-12-18T00:51:19;102979.22;;;-1.12;100.00
49216;BME280;45943;53.148;8.204;2022-12-18T00:53:45;102980.97;;;-1.21;100.00
49216;BME280;45943;53.148;8.204;2022-12-18T00:56:11;102980.06;;;-1.33;100.00
49216;BME280;45943;53.148;8.204;2022-12-18T00:58:37;102992.25;;;-1.57;100.00
49216;BME280;45943;53.148;8.204;2022-12-18T01:01:04;103001.81;;;-1.74;100.00
49216;BME280;45943;53.148;8.204;2022-12-18T01:03:30;103000.94;;;-1.73;100.00
49216;BME280;45943;53.148;8.204;2022-12-18T01:05:56;103007.03;;;-1.80;100.00
49216;BME280;45943;53.148;8.204;2022-12-18T01:08:22;103007.91;;;-1.81;100.00
49216;BME280;45943;53.148;8.204;2022-12-18T01:10:48;103009.72;;;-1.74;100.00
49216;BME280;45943;53.148;8.204;2022-12-18T01:13:14;103001.81;;;-1.76;100.00
49216;BME280;45943;53.148;8.204;2022-12-18T01:15:47;103012.28;;;-1.83;100.00
49216;BME280;45943;53.148;8.204;2022-12-18T01:18:13;103001.72;;;-1.91;100.00
49216;BME280;45943;53.148;8.204;2022-12-18T01:20:39;103008.75;;;-1.88;100.00
49216;BME280;45943;53.148;8.204;2022-12-18T01:23:05;103008.75;;;-1.88;100.00
49216;BME280;45943;53.148;8.204;2022-12-18T01:25:31;103011.34;;;-1.94;100.00
49216;BME280;45943;53.148;8.204;2022-12-18T01:27:57;103021.75;;;-2.08;100.00
49216;BME280;45943;53.148;8.204;2022-12-18T01:30:23;103016.50;;;-2.11;100.00
49216;BME280;45943;53.148;8.204;2022-12-18T01:32:49;103021.75;;;-2.16;100.00
49216;BME280;45943;53.148;8.204;2022-12-18T01:35:15;103013.00;;;-2.09;100.00
49216;BME280;45943;53.148;8.204;2022-12-18T01:37:41;103022.63;;;-2.12;100.00
49216;BME280;45943;53.148;8.204;2022-12-18T01:40:07;103020.00;;;-2.12;100.00
49216;BME280;45943;53.148;8.204;2022-12-18T01:42:35;103020.78;;;-2.25;100.00
49216;BME280;45943;53.148;8.204;2022-12-18T01:45:02;103019.06;;;-2.22;100.00
49216;BME280;45943;53.148;8.204;2022-12-18T01:47:41;103027.91;;;-2.09;100.00
49216;BME280;45943;53.148;8.204;2022-12-18T01:53:03;103038.28;;;-2.27;100.00
49216;BME280;45943;53.148;8.204;2022-12-18T01:55:40;103033.13;;;-2.15;100.00
49216;BME280;45943;53.148;8.204;2022-12-18T01:58:12;103035.72;;;-2.20;100.00
49216;BME280;45943;53.148;8.204;2022-12-18T02:00:38;103040.88;;;-2.31;100.00
49216;BME280;45943;53.148;8.204;2022-12-18T02:03:05;103045.28;;;-2.28;100.00
49216;BME280;45943;53.148;8.204;2022-12-18T02:05:37;103041.75;;;-2.32;100.00
49216;BME280;45943;53.148;8.204;2022-12-18T02:08:16;103034.81;;;-2.23;100.00
49216;BME280;45943;53.148;8.204;2022-12-18T02:10:48;103036.63;;;-2.15;100.00
49216;BME280;45943;53.148;8.204;2022-12-18T02:13:26;103045.47;;;-2.05;100.00
49216;BME280;45943;53.148;8.204;2022-12-18T02:16:01;103039.44;;;-1.87;100.00
49216;BME280;45943;53.148;8.204;2022-12-18T02:18:48;103038.53;;;-1.95;100.00
49216;BME280;45943;53.148;8.204;2022-12-18T02:21:31;103027.91;;;-2.08;100.00
49216;BME280;45943;53.148;8.204;2022-12-18T02:26:45;103023.56;;;-1.99;100.00
49216;BME280;45943;53.148;8.204;2022-12-18T02:29:22;103029.81;;;-1.87;100.00
49216;BME280;45943;53.148;8.204;2022-12-18T02:31:54;103031.53;;;-1.89;100.00
49216;BME280;45943;53.148;8.204;2022-12-18T02:34:24;103025.41;;;-1.91;100.00
49216;BME280;45943;53.148;8.204;2022-12-18T02:36:55;103026.25;;;-1.95;100.00
49216;BME280;45943;53.148;8.204;2022-12-18T02:39:25;103023.63;;;-1.96;100.00
49216;BME280;45943;53.148;8.204;2022-12-18T02:41:53;103021.81;;;-2.00;100.00
49216;BME280;45943;53.148;8.204;2022-12-18T02:44:19;103020.94;;;-2.06;100.00
49216;BME280;45943;53.148;8.204;2022-12-18T02:46:46;103013.00;;;-2.09;100.00
49216;BME280;45943;53.148;8.204;2022-12-18T02:55:28;103019.06;;;-2.22;100.00
49216;BME280;45943;53.148;8.204;2022-12-18T02:58:30;103021.69;;;-2.22;100.00
49216;BME280;45943;53.148;8.204;2022-12-18T03:01:15;103014.59;;;-2.32;100.00
49216;BME280;45943;53.148;8.204;2022-12-18T03:03:54;103016.34;;;-2.34;100.00
49216;BME280;45943;53.148;8.204;2022-12-18T03:06:24;103016.34;;;-2.29;100.00
49216;BME280;45943;53.148;8.204;2022-12-18T03:09:17;103000.56;;;-2.36;100.00
49216;BME280;45943;53.148;8.204;2022-12-18T03:11:48;102996.91;;;-2.53;100.00
49216;BME280;45943;53.148;8.204;2022-12-18T03:14:39;102994.19;;;-2.64;100.00
49216;BME280;45943;53.148;8.204;2022-12-18T03:17:09;102988.88;;;-2.73;100.00
49216;BME280;45943;53.148;8.204;2022-12-18T03:19:41;102990.63;;;-2.70;100.00
49216;BME280;45943;53.148;8.204;2022-12-18T03:22:09;102997.63;;;-2.71;100.00
49216;BME280;45943;53.148;8.204;2022-12-18T03:24:35;103004.66;;;-2.67;100.00
49216;BME280;45943;53.148;8.204;2022-12-18T03:27:06;103005.59;;;-2.60;100.00
49216;BME280;45943;53.148;8.204;2022-12-18T03:29:41;103002.91;;;-2.66;100.00
49216;BME280;45943;53.148;8.204;2022-12-18T03:32:12;103009.09;;;-2.60;100.00
49216;BME280;45943;53.148;8.204;2022-12-18T03:34:43;103018.72;;;-2.62;100.00
49216;BME280;45943;53.148;8.204;2022-12-18T03:37:14;103028.34;;;-2.64;100.00
49216;BME280;45943;53.148;8.204;2022-12-18T03:39:40;103014.38;;;-2.60;100.00
49216;BME280;45943;53.148;8.204;2022-12-18T03:44:53;103006.50;;;-2.58;100.00
49216;BME280;45943;53.148;8.204;2022-12-18T03:47:36;103011.88;;;-2.46;100.00
49216;BME280;45943;53.148;8.204;2022-12-18T03:52:48;103023.28;;;-2.42;100.00
49216;BME280;45943;53.148;8.204;2022-12-18T03:55:20;103014.53;;;-2.38;100.00
49216;BME280;45943;53.148;8.204;2022-12-18T03:57:48;103007.53;;;-2.39;100.00
49216;BME280;45943;53.148;8.204;2022-12-18T04:00:16;103004.78;;;-2.54;100.00
49216;BME280;45943;53.148;8.204;2022-12-18T04:02:48;102995.97;;;-2.61;100.00
49216;BME280;45943;53.148;8.204;2022-12-18T04:05:18;103003.78;;;-2.69;100.00
49216;BME280;45943;53.148;8.204;2022-12-18T04:07:47;103010.75;;;-2.72;100.00
49216;BME280;45943;53.148;8.204;2022-12-18T04:10:15;103013.41;;;-2.71;100.00
49216;BME280;45943;53.148;8.204;2022-12-18T04:12:42;103022.16;;;-2.67;100.00
49216;BME280;45943;53.148;8.204;2022-12-18T04:15:09;103024.78;;;-2.67;100.00
49216;BME280;45943;53.148;8.204;2022-12-18T04:17:36;103025.63;;;-3.53;100.00
49216;BME280;45943;53.148;8.204;2022-12-18T04:20:03;103017.53;;;-4.30;100.00
49216;BME280;45943;53.148;8.204;2022-12-18T04:22:29;103011.00;;;-4.55;100.00
49216;BME280;45943;53.148;8.204;2022-12-18T04:24:55;103008.31;;;-4.62;100.00
49216;BME280;45943;53.148;8.204;2022-12-18T04:27:21;103012.75;;;-3.33;100.00
49216;BME280;45943;53.148;8.204;2022-12-18T04:29:47;103009.41;;;-3.19;100.00
49216;BME280;45943;53.148;8.204;2022-12-18T04:32:13;103021.63;;;-3.22;100.00
49216;BME280;45943;53.148;8.204;2022-12-18T04:34:39;103018.09;;;-3.24;100.00
49216;BME280;45943;53.148;8.204;2022-12-18T04:37:05;102988.09;;;-3.46;100.00
49216;BME280;45943;53.148;8.204;2022-12-18T04:39:31;103021.50;;;-3.33;100.00
49216;BME280;45943;53.148;8.204;2022-12-18T04:41:57;103033.75;;;-3.32;100.00
49216;BME280;45943;53.148;8.204;2022-12-18T04:44:23;103034.69;;;-3.27;100.00
49216;BME280;45943;53.148;8.204;2022-12-18T04:46:49;103032.78;;;-3.40;100.00
49216;BME280;45943;53.148;8.204;2022-12-18T04:49:15;103029.31;;;-3.34;100.00
49216;BME280;45943;53.148;8.204;2022-12-18T04:51:41;103012.69;;;-3.36;100.00
49216;BME280;45943;53.148;8.204;2022-12-18T04:54:07;103018.84;;;-3.34;100.00
49216;BME280;45943;53.148;8.204;2022-12-18T04:56:33;103029.44;;;-3.27;100.00
49216;BME280;45943;53.148;8.204;2022-12-18T04:58:59;103026.88;;;-3.22;100.00
49216;BME280;45943;53.148;8.204;2022-12-18T05:01:25;103024.16;;;-3.30;100.00
49216;BME280;45943;53.148;8.204;2022-12-18T05:03:51;103032.91;;;-3.28;100.00
49216;BME280;45943;53.148;8.204;2022-12-18T05:06:17;103033.91;;;-3.17;100.00
49216;BME280;45943;53.148;8.204;2022-12-18T05:08:43;103040.16;;;-3.05;100.00
49216;BME280;45943;53.148;8.204;2022-12-18T05:11:11;103044.50;;;-3.09;100.00
49216;BME280;45943;53.148;8.204;2022-12-18T05:13:41;103046.38;;;-3.00;100.00
49216;BME280;45943;53.148;8.204;2022-12-18T05:16:08;103053.25;;;-3.08;100.00
49216;BME280;45943;53.148;8.204;2022-12-18T05:18:34;103053.25;;;-3.10;100.00
49216;BME280;45943;53.148;8.204;2022-12-18T05:21:00;103055.03;;;-3.07;100.00
49216;BME280;45943;53.148;8.204;2022-12-18T05:23:26;103040.16;;;-3.07;100.00
49216;BME280;45943;53.148;8.204;2022-12-18T05:25:53;103043.50;;;-3.23;100.00
49216;BME280;45943;53.148;8.204;2022-12-18T05:28:20;103042.66;;;-3.18;100.00
49216;BME280;45943;53.148;8.204;2022-12-18T05:30:50;103044.50;;;-3.10;100.00
49216;BME280;45943;53.148;8.204;2022-12-18T05:33:18;103045.47;;;-3.01;100.00
49216;BME280;45943;53.148;8.204;2022-12-18T05:35:49;103045.59;;;-2.92;100.00
49216;BME280;45943;53.148;8.204;2022-12-18T05:38:16;103048.19;;;-2.95;100.00
49216;BME280;45943;53.148;8.204;2022-12-18T05:40:42;103043.75;;;-2.97;100.00
49216;BME280;45943;53.148;8.204;2022-12-18T05:43:09;103041.91;;;-3.07;100.00
49216;BME280;45943;53.148;8.204;2022-12-18T05:45:39;103042.84;;;-3.01;100.00
49216;BME280;45943;53.148;8.204;2022-12-18T05:48:05;103043.53;;;-3.19;100.00
49216;BME280;45943;53.148;8.204;2022-12-18T05:50:36;103041.78;;;-3.18;100.00
49216;BME280;45943;53.148;8.204;2022-12-18T05:53:03;103045.13;;;-3.33;100.00
49216;BME280;45943;53.148;8.204;2022-12-18T05:55:32;103053.38;;;-4.78;100.00
49216;BME280;45943;53.148;8.204;2022-12-18T05:57:59;103060.22;;;-4.86;100.00
49216;BME280;45943;53.148;8.204;2022-12-18T06:00:25;103065.38;;;-4.91;100.00
49216;BME280;45943;53.148;8.204;2022-12-18T06:02:51;103053.16;;;-4.90;100.00
49216;BME280;45943;53.148;8.204;2022-12-18T06:05:17;103058.56;;;-4.81;100.00
49216;BME280;45943;53.148;8.204;2022-12-18T06:07:43;103059.56;;;-4.73;100.00
49216;BME280;45943;53.148;8.204;2022-12-18T06:10:09;103053.41;;;-4.76;100.00
49216;BME280;45943;53.148;8.204;2022-12-18T06:12:35;103061.97;;;-4.85;100.00
49216;BME280;45943;53.148;8.204;2022-12-18T06:15:01;103065.53;;;-4.81;100.00
49216;BME280;45943;53.148;8.204;2022-12-18T06:17:28;103063.72;;;-4.84;100.00
49216;BME280;45943;53.148;8.204;2022-12-18T06:19:58;103062.94;;;-4.80;100.00
49216;BME280;45943;53.148;8.204;2022-12-18T06:22:24;103065.56;;;-4.80;100.00
49216;BME280;45943;53.148;8.204;2022-12-18T06:24:50;103074.31;;;-4.78;100.00
49216;BME280;45943;53.148;8.204;2022-12-18T06:27:16;103072.72;;;-4.70;100.00
49216;BME280;45943;53.148;8.204;2022-12-18T06:29:42;103074.53;;;-4.67;100.00
49216;BME280;45943;53.148;8.204;2022-12-18T06:32:08;103069.31;;;-4.64;100.00
49216;BME280;45943;53.148;8.204;2022-12-18T06:34:36;103071.97;;;-4.63;100.00
49216;BME280;45943;53.148;8.204;2022-12-18T06:37:03;103068.34;;;-4.71;100.00
49216;BME280;45943;53.148;8.204;2022-12-18T06:39:29;103067.38;;;-4.76;100.00
49216;BME280;45943;53.148;8.204;2022-12-18T06:41:55;103071.47;;;-4.92;100.00
49216;BME280;45943;53.148;8.204;2022-12-18T06:44:21;103072.94;;;-5.04;100.00
49216;BME280;45943;53.148;8.204;2022-12-18T06:46:47;103084.28;;;-5.04;100.00
49216;BME280;45943;53.148;8.204;2022-12-18T06:49:13;103076.59;;;-4.96;100.00
49216;BME280;45943;53.148;8.204;2022-12-18T06:51:39;103075.75;;;-4.94;100.00
49216;BME280;45943;53.148;8.204;2022-12-18T06:54:05;103077.53;;;-4.93;100.00
49216;BME280;45943;53.148;8.204;2022-12-18T06:56:31;103092.44;;;-4.88;100.00
49216;BME280;45943;53.148;8.204;2022-12-18T06:58:57;103092.34;;;-4.93;100.00
49216;BME280;45943;53.148;8.204;2022-12-18T07:01:23;103087.88;;;-4.99;100.00
49216;BME280;45943;53.148;8.204;2022-12-18T07:03:55;103090.53;;;-4.97;100.00
49216;BME280;45943;53.148;8.204;2022-12-18T07:06:23;103082.19;;;-3.73;100.00
49216;BME280;45943;53.148;8.204;2022-12-18T07:08:50;103091.09;;;-4.67;100.00
49216;BME280;45943;53.148;8.204;2022-12-18T07:11:18;103083.88;;;-4.81;100.00
49216;BME280;45943;53.148;8.204;2022-12-18T07:13:45;103091.66;;;-4.84;100.00
49216;BME280;45943;53.148;8.204;2022-12-18T07:16:13;103090.00;;;-4.79;100.00
49216;BME280;45943;53.148;8.204;2022-12-18T07:18:40;103072.44;;;-4.35;100.00
49216;BME280;45943;53.148;8.204;2022-12-18T07:21:07;103074.22;;;-4.34;100.00
49216;BME280;45943;53.148;8.204;2022-12-18T07:23:35;103069.78;;;-4.40;100.00
49216;BME280;45943;53.148;8.204;2022-12-18T07:26:05;103073.50;;;-4.75;100.00
49216;BME280;45943;53.148;8.204;2022-12-18T07:28:33;103071.19;;;-4.06;100.00
49216;BME280;45943;53.148;8.204;2022-12-18T07:31:06;103071.91;;;-4.16;100.00
49216;BME280;45943;53.148;8.204;2022-12-18T07:33:34;103079.44;;;-4.34;100.00
49216;BME280;45943;53.148;8.204;2022-12-18T07:36:00;103069.28;;;-4.14;100.00
49216;BME280;45943;53.148;8.204;2022-12-18T07:38:29;103077.72;;;-4.34;100.00
49216;BME280;45943;53.148;8.204;2022-12-18T07:41:02;103070.09;;;-4.21;100.00
49216;BME280;45943;53.148;8.204;2022-12-18T07:43:29;103061.56;;;-4.07;100.00
49216;BME280;45943;53.148;8.204;2022-12-18T07:45:56;103053.09;;;-4.43;100.00
49216;BME280;45943;53.148;8.204;2022-12-18T07:48:21;103065.28;;;-4.45;100.00
49216;BME280;45943;53.148;8.204;2022-12-18T07:50:48;103057.16;;;-4.62;100.00
49216;BME280;45943;53.148;8.204;2022-12-18T07:53:14;103066.69;;;-4.66;100.00
49216;BME280;45943;53.148;8.204;2022-12-18T07:55:41;103066.53;;;-4.73;100.00
49216;BME280;45943;53.148;8.204;2022-12-18T07:58:07;103062.34;;;-4.65;100.00
49216;BME280;45943;53.148;8.204;2022-12-18T08:00:34;103060.53;;;-4.68;100.00
49216;BME280;45943;53.148;8.204;2022-12-18T08:03:01;103054.59;;;-4.59;100.00
49216;BME280;45943;53.148;8.204;2022-12-18T08:05:27;103066.00;;;-4.55;100.00
49216;BME280;45943;53.148;8.204;2022-12-18T08:07:54;103056.47;;;-3.96;100.00
49216;BME280;45943;53.148;8.204;2022-12-18T08:10:20;103042.91;;;-3.67;100.00
49216;BME280;45943;53.148;8.204;2022-12-18T08:12:49;103050.59;;;-3.80;100.00
49216;BME280;45943;53.148;8.204;2022-12-18T08:15:16;103042.75;;;-3.80;100.00
49216;BME280;45943;53.148;8.204;2022-12-18T08:17:42;103054.09;;;-3.82;100.00
49216;BME280;45943;53.148;8.204;2022-12-18T08:20:08;103048.88;;;-3.78;100.00
49216;BME280;45943;53.148;8.204;2022-12-18T08:22:35;103048.97;;;-3.73;100.00
49216;BME280;45943;53.148;8.204;2022-12-18T08:25:01;103046.50;;;-3.62;100.00
49216;BME280;45943;53.148;8.204;2022-12-18T08:27:29;103053.56;;;-3.55;100.00
49216;BME280;45943;53.148;8.204;2022-12-18T08:29:55;103055.16;;;-3.65;100.00
49216;BME280;45943;53.148;8.204;2022-12-18T08:32:22;103042.00;;;-3.69;100.00
49216;BME280;45943;53.148;8.204;2022-12-18T08:34:48;103037.47;;;-3.81;100.00
49216;BME280;45943;53.148;8.204;2022-12-18T08:37:14;103034.97;;;-3.73;100.00
49216;BME280;45943;53.148;8.204;2022-12-18T08:39:40;103048.00;;;-3.78;100.00
49216;BME280;45943;53.148;8.204;2022-12-18T08:42:06;103049.00;;;-3.70;100.00
49216;BME280;45943;53.148;8.204;2022-12-18T08:44:50;103048.91;;;-3.75;100.00
49216;BME280;45943;53.148;8.204;2022-12-18T08:47:16;103042.16;;;-3.57;100.00
49216;BME280;45943;53.148;8.204;2022-12-18T08:49:42;103048.22;;;-2.89;100.00
49216;BME280;45943;53.148;8.204;2022-12-18T08:52:08;103047.66;;;-2.58;100.00
49216;BME280;45943;53.148;8.204;2022-12-18T08:54:34;103044.31;;;-2.42;100.00
49216;BME280;45943;53.148;8.204;2022-12-18T08:57:00;103040.94;;;-2.24;100.00
49216;BME280;45943;53.148;8.204;2022-12-18T08:59:27;103050.91;;;-2.84;100.00
49216;BME280;45943;53.148;8.204;2022-12-18T09:01:53;103062.19;;;-2.94;100.00
49216;BME280;45943;53.148;8.204;2022-12-18T09:04:19;103067.38;;;-2.97;100.00
49216;BME280;45943;53.148;8.204;2022-12-18T09:06:46;103074.56;;;-2.82;100.00
49216;BME280;45943;53.148;8.204;2022-12-18T09:09:12;103078.16;;;-2.74;100.00
49216;BME280;45943;53.148;8.204;2022-12-18T09:11:38;103089.59;;;-2.68;100.00
49216;BME280;45943;53.148;8.204;2022-12-18T09:14:04;103090.53;;;-2.64;100.00
49216;BME280;45943;53.148;8.204;2022-12-18T09:16:31;103089.59;;;-2.68;100.00
49216;BME280;45943;53.148;8.204;2022-12-18T09:18:58;103073.00;;;-2.65;100.00
49216;BME280;45943;53.148;8.204;2022-12-18T09:21:25;103065.94;;;-2.69;100.00
49216;BME280;45943;53.148;8.204;2022-12-18T09:23:54;103065.22;;;-2.54;100.00
49216;BME280;45943;53.148;8.204;2022-12-18T09:26:21;103080.91;;;-2.61;100.00
49216;BME280;45943;53.148;8.204;2022-12-18T09:28:48;103079.16;;;-2.62;100.00
49216;BME280;45943;53.148;8.204;2022-12-18T09:31:15;103082.78;;;-2.49;100.00
49216;BME280;45943;53.148;8.204;2022-12-18T09:33:42;103074.09;;;-2.43;100.00
49216;BME280;45943;53.148;8.204;2022-12-18T09:36:08;103069.81;;;-2.27;100.00
49216;BME280;45943;53.148;8.204;2022-12-18T09:38:36;103077.53;;;-2.47;100.00
49216;BME280;45943;53.148;8.204;2022-12-18T09:41:04;103077.66;;;-2.35;100.00
49216;BME280;45943;53.148;8.204;2022-12-18T09:43:57;103089.06;;;-2.32;100.00
49216;BME280;45943;53.148;8.204;2022-12-18T09:46:27;103085.56;;;-2.29;100.00
49216;BME280;45943;53.148;8.204;2022-12-18T09:49:05;103075.94;;;-2.27;100.00
49216;BME280;45943;53.148;8.204;2022-12-18T09:51:42;103074.19;;;-2.26;100.00
49216;BME280;45943;53.148;8.204;2022-12-18T09:54:20;103069.94;;;-2.14;100.00
49216;BME280;45943;53.148;8.204;2022-12-18T09:56:52;103076.38;;;-1.69;100.00
49216;BME280;45943;53.148;8.204;2022-12-18T09:59:20;103079.16;;;-1.45;100.00
49216;BME280;45943;53.148;8.204;2022-12-18T10:01:50;103076.63;;;-1.22;100.00
49216;BME280;45943;53.148;8.204;2022-12-18T10:04:17;103073.22;;;-0.89;100.00
49216;BME280;45943;53.148;8.204;2022-12-18T10:09:33;103071.56;;;-0.57;100.00
49216;BME280;45943;53.148;8.204;2022-12-18T10:12:08;103075.06;;;-0.55;100.00
49216;BME280;45943;53.148;8.204;2022-12-18T10:14:57;103065.38;;;-0.66;100.00
49216;BME280;45943;53.148;8.204;2022-12-18T10:28:12;103032.03;;;-0.38;100.00
49216;BME280;45943;53.148;8.204;2022-12-18T10:30:40;103032.88;;;-0.42;100.00
49216;BME280;45943;53.148;8.204;2022-12-18T10:33:10;103027.59;;;-0.49;100.00
49216;BME280;45943;53.148;8.204;2022-12-18T10:35:40;103026.72;;;-0.51;100.00
49216;BME280;45943;53.148;8.204;2022-12-18T10:38:20;103024.09;;;-0.50;100.00
49216;BME280;45943;53.148;8.204;2022-12-18T10:43:22;103017.94;;;-0.50;100.00
49216;BME280;45943;53.148;8.204;2022-12-18T10:48:35;103008.28;;;-0.39;100.00
49216;BME280;45943;53.148;8.204;2022-12-18T10:51:06;103017.06;;;-0.28;100.00
49216;BME280;45943;53.148;8.204;2022-12-18T10:53:33;103026.75;;;-0.18;100.00
49216;BME280;45943;53.148;8.204;2022-12-18T10:56:02;103013.53;;;-0.09;100.00
49216;BME280;45943;53.148;8.204;2022-12-18T10:58:31;103003.84;;;-0.11;100.00
49216;BME280;45943;53.148;8.204;2022-12-18T11:03:46;102990.66;;;-0.04;100.00
49216;BME280;45943;53.148;8.204;2022-12-18T11:06:25;102990.66;;;0.03;100.00
49216;BME280;45943;53.148;8.204;2022-12-18T11:09:00;102998.59;;;-0.19;100.00
49216;BME280;45943;53.148;8.204;2022-12-18T11:11:28;102989.78;;;0.01;100.00
49216;BME280;45943;53.148;8.204;2022-12-18T11:14:02;102986.22;;;0.12;100.00
49216;BME280;45943;53.148;8.204;2022-12-18T11:16:34;102982.69;;;0.13;100.00
49216;BME280;45943;53.148;8.204;2022-12-18T11:21:58;102966.00;;;0.13;100.00
49216;BME280;45943;53.148;8.204;2022-12-18T11:24:30;102972.13;;;0.15;100.00
49216;BME280;45943;53.148;8.204;2022-12-18T11:27:00;102974.75;;;0.16;100.00
49216;BME280;45943;53.148;8.204;2022-12-18T11:29:30;102968.66;;;0.02;100.00
49216;BME280;45943;53.148;8.204;2022-12-18T11:34:55;102959.72;;;0.37;100.00
49216;BME280;45943;53.148;8.204;2022-12-18T11:37:43;102953.56;;;0.44;100.00
49216;BME280;45943;53.148;8.204;2022-12-18T11:40:19;102942.09;;;0.49;100.00
49216;BME280;45943;53.148;8.204;2022-12-18T11:42:58;102937.63;;;0.57;100.00
49216;BME280;45943;53.148;8.204;2022-12-18T11:45:35;102934.13;;;0.54;100.00
49216;BME280;45943;53.148;8.204;2022-12-18T11:51:19;102929.00;;;0.30;100.00
49216;BME280;45943;53.148;8.204;2022-12-18T11:53:58;102923.63;;;0.39;100.00
49216;BME280;45943;53.148;8.204;2022-12-18T11:56:32;102923.63;;;0.43;100.00
49216;BME280;45943;53.148;8.204;2022-12-18T11:59:09;102922.72;;;0.47;100.00
49216;BME280;45943;53.148;8.204;2022-12-18T12:02:01;102919.28;;;0.35;100.00
49216;BME280;45943;53.148;8.204;2022-12-18T12:07:25;102897.25;;;0.42;100.00
49216;BME280;45943;53.148;8.204;2022-12-18T12:10:07;102906.00;;;0.50;100.00
49216;BME280;45943;53.148;8.204;2022-12-18T12:20:42;102899.91;;;0.37;100.00
49216;BME280;45943;53.148;8.204;2022-12-18T12:23:15;102893.75;;;0.35;100.00
49216;BME280;45943;53.148;8.204;2022-12-18T12:26:11;102886.75;;;0.30;100.00
49216;BME280;45943;53.148;8.204;2022-12-18T12:31:32;102887.63;;;0.30;100.00
49216;BME280;45943;53.148;8.204;2022-12-18T12:34:26;102888.47;;;0.34;100.00
49216;BME280;45943;53.148;8.204;2022-12-18T12:40:00;102872.53;;;0.52;100.00
49216;BME280;45943;53.148;8.204;2022-12-18T12:42:51;102869.13;;;0.35;100.00
49216;BME280;45943;53.148;8.204;2022-12-18T12:45:41;102857.69;;;0.34;100.00
49216;BME280;45943;53.148;8.204;2022-12-18T12:48:17;102855.03;;;0.34;100.00
49216;BME280;45943;53.148;8.204;2022-12-18T12:51:00;102848.81;;;0.44;100.00
49216;BME280;45943;53.148;8.204;2022-12-18T12:53:30;102854.06;;;0.50;100.00
49216;BME280;45943;53.148;8.204;2022-12-18T12:56:00;102848.78;;;0.47;100.00
49216;BME280;45943;53.148;8.204;2022-12-18T13:01:22;102847.97;;;0.42;100.00
49216;BME280;45943;53.148;8.204;2022-12-18T13:03:56;102848.88;;;0.37;100.00
49216;BME280;45943;53.148;8.204;2022-12-18T13:06:43;102841.78;;;0.43;100.00
49216;BME280;45943;53.148;8.204;2022-12-18T13:09:33;102825.09;;;0.41;100.00
49216;BME280;45943;53.148;8.204;2022-12-18T13:12:01;102822.41;;;0.46;100.00
49216;BME280;45943;53.148;8.204;2022-12-18T13:14:48;102810.97;;;0.50;100.00
49216;BME280;45943;53.148;8.204;2022-12-18T13:19:41;102807.44;;;0.49;100.00
49216;BME280;45943;53.148;8.204;2022-12-18T13:33:32;102797.88;;;0.33;100.00
49216;BME280;45943;53.148;8.204;2022-12-18T13:35:52;102801.44;;;0.23;100.00
49216;BME280;45943;53.148;8.204;2022-12-18T13:38:24;102796.22;;;0.15;100.00
49216;BME280;45943;53.148;8.204;2022-12-18T13:41:01;102791.88;;;0.07;100.00
49216;BME280;45943;53.148;8.204;2022-12-18T13:43:44;102780.38;;;0.17;100.00
49216;BME280;45943;53.148;8.204;2022-12-18T13:46:25;102780.38;;;0.15;100.00
49216;BME280;45943;53.148;8.204;2022-12-18T13:49:05;102780.41;;;0.14;100.00
49216;BME280;45943;53.148;8.204;2022-12-18T13:51:41;102782.19;;;0.06;100.00
49216;BME280;45943;53.148;8.204;2022-12-18T13:56:54;102773.41;;;0.05;100.00
49216;BME280;45943;53.148;8.204;2022-12-18T13:59:21;102778.56;;;0.23;100.00
49216;BME280;45943;53.148;8.204;2022-12-18T14:04:20;102766.28;;;0.21;100.00
49216;BME280;45943;53.148;8.204;2022-12-18T14:06:50;102768.97;;;0.09;100.00
49216;BME280;45943;53.148;8.204;2022-12-18T14:09:20;102753.16;;;0.09;100.00
49216;BME280;45943;53.148;8.204;2022-12-18T14:11:54;102764.59;;;0.06;100.00
49216;BME280;45943;53.148;8.204;2022-12-18T14:14:41;102750.63;;;-0.08;100.00
49216;BME280;45943;53.148;8.204;2022-12-18T14:17:10;102756.69;;;0.06;100.00
49216;BME280;45943;53.148;8.204;2022-12-18T14:19:37;102751.41;;;0.11;100.00
49216;BME280;45943;53.148;8.204;2022-12-18T14:22:12;102739.09;;;0.05;100.00
49216;BME280;45943;53.148;8.204;2022-12-18T14:24:41;102744.44;;;0.01;100.00